createdAt,value
2018-09-12T00:00:47.788Z,77.68
2018-09-12T00:01:48.508Z,77.73
2018-09-12T00:02:49.187Z,77.76
2018-09-12T00:03:49.852Z,77.56
2018-09-12T00:04:50.446Z,77.98
2018-09-12T00:05:51.047Z,78.13
2018-09-12T00:06:51.684Z,78.34
2018-09-12T00:07:52.241Z,77.92
2018-09-12T00:08:53.917Z,78.30
2018-09-12T00:09:51.953Z,78.94
2018-09-12T00:10:52.443Z,78.56
2018-09-12T00:11:54.014Z,78.25
2018-09-12T00:12:54.701Z,78.31
2018-09-12T00:13:54.337Z,78.36
2018-09-12T00:15:02.258Z,78.44
2018-09-12T00:15:55.584Z,78.40
2018-09-12T00:16:57.320Z,78.30
2018-09-12T00:17:57.322Z,78.44
2018-09-12T00:18:57.893Z,78.58
2018-09-12T00:19:58.399Z,78.35
2018-09-12T00:20:58.996Z,78.99
2018-09-12T00:21:59.653Z,78.90
2018-09-12T00:22:11.010Z,78.81
2018-09-12T00:23:12.551Z,78.70
2018-09-12T00:24:13.211Z,78.52
2018-09-12T00:25:13.729Z,78.90
2018-09-12T00:26:14.170Z,78.98
2018-09-12T00:27:14.669Z,79.65
2018-09-12T00:28:15.311Z,79.34
2018-09-12T00:29:15.837Z,79.37
2018-09-12T00:30:16.471Z,79.26
2018-09-12T00:31:17.413Z,79.70
2018-09-12T00:32:17.860Z,79.62
2018-09-12T00:33:18.330Z,79.80
2018-09-12T00:34:18.799Z,80.02
2018-09-12T00:35:19.514Z,79.98
2018-09-12T00:36:20.070Z,80.03
2018-09-12T00:37:20.532Z,79.84
2018-09-12T00:38:21.500Z,80.21
2018-09-12T00:39:22.104Z,80.03
2018-09-12T00:40:22.611Z,80.33
2018-09-12T00:41:23.191Z,80.23
2018-09-12T00:42:24.172Z,80.29
2018-09-12T00:43:24.669Z,80.28
2018-09-12T00:44:25.198Z,80.68
2018-09-12T00:45:25.920Z,80.41
2018-09-12T00:46:25.893Z,80.52
2018-09-12T00:47:26.613Z,80.56
2018-09-12T00:48:27.247Z,80.57
2018-09-12T00:49:27.824Z,80.39
2018-09-12T00:50:28.611Z,80.57
2018-09-12T00:51:29.062Z,80.59
2018-09-12T00:52:29.611Z,80.49
2018-09-12T00:53:30.070Z,80.56
2018-09-12T00:54:30.922Z,81.27
2018-09-12T00:55:31.612Z,80.93
2018-09-12T00:56:32.102Z,80.81
2018-09-12T00:57:32.809Z,80.91
2018-09-12T00:58:33.260Z,80.76
2018-09-12T00:59:33.834Z,81.04
2018-09-12T01:00:34.812Z,81.15
2018-09-12T01:01:35.337Z,81.49
2018-09-12T01:02:35.879Z,81.62
2018-09-12T01:03:36.289Z,81.22
2018-09-12T01:04:36.769Z,81.38
2018-09-12T01:04:45.133Z,81.29
2018-09-12T01:05:45.548Z,81.29
2018-09-12T01:06:46.550Z,81.41
2018-09-12T01:07:47.178Z,81.30
2018-09-12T01:08:47.818Z,81.70
2018-09-12T01:09:48.419Z,81.47
2018-09-12T01:10:49.056Z,81.57
2018-09-12T01:11:49.593Z,81.60
2018-09-12T01:12:50.279Z,81.75
2018-09-12T01:13:50.873Z,81.61
2018-09-12T01:14:51.488Z,81.51
2018-09-12T01:15:52.278Z,81.64
2018-09-12T01:16:52.761Z,81.97
2018-09-12T01:17:53.464Z,82.18
2018-09-12T01:18:54.088Z,81.97
2018-09-12T01:19:54.589Z,81.99
2018-09-12T01:20:55.206Z,81.54
2018-09-12T01:21:55.774Z,81.20
2018-09-12T01:22:56.245Z,81.18
2018-09-12T01:23:56.755Z,80.99
2018-09-12T01:24:57.293Z,81.32
2018-09-12T01:25:58.020Z,81.15
2018-09-12T01:26:58.455Z,80.85
2018-09-12T01:27:58.897Z,81.01
2018-09-12T01:28:59.512Z,81.07
2018-09-12T01:30:00.014Z,80.85
2018-09-12T01:31:00.263Z,81.21
2018-09-12T01:32:00.874Z,80.60
2018-09-12T01:33:01.533Z,80.79
2018-09-12T01:34:02.185Z,80.92
2018-09-12T01:35:02.829Z,80.80
2018-09-12T01:36:03.457Z,80.62
2018-09-12T01:37:04.071Z,80.69
2018-09-12T01:38:04.593Z,80.69
2018-09-12T01:39:05.139Z,80.38
2018-09-12T01:40:05.699Z,80.47
2018-09-12T01:41:06.281Z,80.75
2018-09-12T01:42:06.804Z,80.88
2018-09-12T01:43:07.331Z,80.97
2018-09-12T01:44:07.792Z,80.53
2018-09-12T01:45:08.310Z,80.83
2018-09-12T01:46:08.845Z,80.58
2018-09-12T01:47:10.343Z,80.94
2018-09-12T01:48:09.871Z,80.88
2018-09-12T01:49:10.369Z,80.78
2018-09-12T01:50:10.911Z,80.42
2018-09-12T01:50:30.959Z,80.37
2018-09-12T01:51:31.538Z,80.44
2018-09-12T01:52:32.049Z,80.42
2018-09-12T01:53:32.666Z,80.67
2018-09-12T01:54:33.201Z,80.47
2018-09-12T01:55:33.759Z,80.57
2018-09-12T01:56:34.348Z,80.75
2018-09-12T01:57:34.820Z,80.77
2018-09-12T01:58:35.386Z,81.00
2018-09-12T01:59:36.040Z,80.90
2018-09-12T02:00:36.589Z,80.78
2018-09-12T02:01:37.222Z,80.77
2018-09-12T02:02:38.089Z,81.13
2018-09-12T02:03:38.644Z,80.88
2018-09-12T02:04:39.229Z,81.36
2018-09-12T02:05:39.789Z,81.47
2018-09-12T02:06:40.430Z,81.30
2018-09-12T02:07:40.960Z,81.44
2018-09-12T02:08:41.493Z,81.68
2018-09-12T02:09:41.972Z,81.55
2018-09-12T02:10:42.587Z,81.52
2018-09-12T02:11:43.108Z,81.40
2018-09-12T02:12:43.436Z,81.50
2018-09-12T02:13:44.206Z,81.73
2018-09-12T02:14:44.951Z,81.54
2018-09-12T02:15:44.998Z,81.77
2018-09-12T02:16:45.693Z,81.58
2018-09-12T02:17:46.323Z,81.73
2018-09-12T02:18:47.012Z,81.54
2018-09-12T02:19:47.837Z,81.39
2018-09-12T02:20:48.311Z,81.25
2018-09-12T02:21:48.505Z,81.47
2018-09-12T02:22:48.909Z,81.38
2018-09-12T02:23:49.391Z,81.38
2018-09-12T02:24:50.127Z,81.43
2018-09-12T02:25:50.725Z,81.98
2018-09-12T02:26:50.861Z,81.79
2018-09-12T02:27:51.543Z,81.65
2018-09-12T02:28:52.277Z,81.93
2018-09-12T02:29:52.393Z,81.96
2018-09-12T02:30:53.120Z,81.99
2018-09-12T02:31:53.689Z,82.00
2018-09-12T02:32:54.178Z,82.05
2018-09-12T02:33:53.609Z,81.96
2018-09-12T02:34:54.870Z,81.90
2018-09-12T02:35:03.375Z,82.16
2018-09-12T02:36:04.107Z,82.17
2018-09-12T02:37:04.657Z,82.16
2018-09-12T02:38:05.485Z,82.40
2018-09-12T02:39:05.609Z,82.00
2018-09-12T02:40:06.123Z,82.08
2018-09-12T02:41:06.771Z,81.99
2018-09-12T02:42:07.662Z,81.86
2018-09-12T02:43:08.352Z,81.50
2018-09-12T02:44:08.890Z,81.28
2018-09-12T02:45:09.604Z,81.45
2018-09-12T02:46:09.796Z,81.36
2018-09-12T02:47:10.459Z,81.48
2018-09-12T02:48:11.020Z,81.57
2018-09-12T02:49:11.117Z,81.60
2018-09-12T02:50:11.748Z,82.02
2018-09-12T02:51:12.337Z,82.13
2018-09-12T02:52:12.463Z,81.84
2018-09-12T02:53:13.105Z,82.15
2018-09-12T02:54:13.656Z,82.05
2018-09-12T02:55:14.119Z,82.38
2018-09-12T02:56:14.685Z,82.48
2018-09-12T02:57:15.374Z,82.52
2018-09-12T02:58:16.117Z,82.48
2018-09-12T02:59:16.705Z,82.31
2018-09-12T03:00:17.339Z,82.22
2018-09-12T03:01:17.965Z,82.29
2018-09-12T03:02:17.590Z,82.14
2018-09-12T03:03:18.797Z,82.76
2018-09-12T03:04:19.715Z,82.55
2018-09-12T03:05:20.489Z,82.97
2018-09-12T03:06:21.007Z,82.66
2018-09-12T03:07:21.608Z,82.87
2018-09-12T03:08:22.218Z,82.97
2018-09-12T03:09:22.883Z,82.92
2018-09-12T03:10:22.958Z,82.82
2018-09-12T03:11:23.568Z,82.85
2018-09-12T03:12:24.182Z,82.94
2018-09-12T03:13:24.764Z,82.95
2018-09-12T03:14:25.566Z,83.15
2018-09-12T03:15:26.187Z,83.42
2018-09-12T03:16:26.810Z,83.39
2018-09-12T03:17:27.449Z,83.37
2018-09-12T03:18:28.115Z,83.50
2018-09-12T03:19:28.715Z,83.72
2018-09-12T03:19:37.081Z,84.60
2018-09-12T03:20:38.750Z,84.54
2018-09-12T03:21:38.228Z,84.50
2018-09-12T03:22:39.830Z,84.71
2018-09-12T03:23:40.335Z,84.39
2018-09-12T03:24:40.578Z,84.65
2018-09-12T03:25:40.940Z,84.59
2018-09-12T03:26:41.451Z,84.87
2018-09-12T03:27:42.103Z,84.65
2018-09-12T03:28:42.929Z,84.74
2018-09-12T03:29:43.558Z,84.72
2018-09-12T03:30:44.088Z,84.86
2018-09-12T03:31:44.687Z,84.69
2018-09-12T03:32:45.252Z,84.91
2018-09-12T03:33:45.951Z,84.42
2018-09-12T03:34:46.466Z,84.12
2018-09-12T03:35:46.512Z,83.80
2018-09-12T03:36:47.339Z,84.14
2018-09-12T03:37:47.988Z,84.41
2018-09-12T03:38:48.750Z,84.19
2018-09-12T03:39:48.374Z,84.23
2018-09-12T03:40:49.874Z,84.36
2018-09-12T03:41:50.391Z,84.22
2018-09-12T03:42:50.832Z,84.60
2018-09-12T03:43:51.343Z,84.93
2018-09-12T03:44:51.905Z,84.86
2018-09-12T03:45:52.353Z,84.83
2018-09-12T03:46:52.814Z,84.72
2018-09-12T03:47:53.658Z,84.78
2018-09-12T03:48:54.180Z,85.05
2018-09-12T03:49:54.655Z,85.12
2018-09-12T03:50:55.140Z,85.25
2018-09-12T03:51:55.782Z,85.30
2018-09-12T03:52:56.258Z,85.55
2018-09-12T03:53:56.727Z,85.21
2018-09-12T03:54:57.315Z,85.40
2018-09-12T03:55:57.757Z,85.50
2018-09-12T03:56:58.339Z,85.76
2018-09-12T03:57:57.931Z,85.76
2018-09-12T03:58:59.675Z,85.92
2018-09-12T04:00:00.201Z,85.75
2018-09-12T04:01:00.728Z,85.79
2018-09-12T04:02:00.835Z,85.95
2018-09-12T04:03:01.617Z,86.10
2018-09-12T04:04:02.229Z,86.26
2018-09-12T04:05:02.736Z,86.21
2018-09-12T04:05:11.100Z,85.97
2018-09-12T04:06:12.575Z,86.01
2018-09-12T04:07:13.147Z,86.17
2018-09-12T04:08:13.705Z,86.21
2018-09-12T04:09:14.577Z,86.40
2018-09-12T04:10:14.012Z,86.08
2018-09-12T04:11:15.522Z,86.07
2018-09-12T04:12:16.237Z,85.80
2018-09-12T04:13:15.858Z,86.31
2018-09-12T04:14:17.587Z,86.38
2018-09-12T04:15:18.201Z,86.21
2018-09-12T04:16:18.886Z,86.35
2018-09-12T04:17:19.585Z,86.43
2018-09-12T04:18:20.187Z,86.17
2018-09-12T04:19:20.732Z,86.20
2018-09-12T04:20:21.667Z,86.65
2018-09-12T04:21:22.158Z,86.67
2018-09-12T04:22:22.811Z,87.01
2018-09-12T04:23:23.384Z,86.86
2018-09-12T04:24:24.472Z,86.92
2018-09-12T04:25:23.973Z,87.18
2018-09-12T04:26:25.530Z,87.62
2018-09-12T04:27:26.031Z,87.62
2018-09-12T04:28:26.542Z,87.21
2018-09-12T04:29:27.117Z,87.69
2018-09-12T04:30:27.148Z,87.36
2018-09-12T04:31:27.762Z,87.11
2018-09-12T04:32:28.463Z,87.39
2018-09-12T04:33:29.229Z,87.15
2018-09-12T04:34:29.906Z,86.85
2018-09-12T04:35:30.321Z,86.82
2018-09-12T04:36:30.859Z,86.44
2018-09-12T04:37:31.391Z,86.45
2018-09-12T04:38:32.273Z,86.85
2018-09-12T04:39:32.847Z,86.87
2018-09-12T04:40:33.395Z,86.86
2018-09-12T04:41:34.035Z,87.05
2018-09-12T04:42:34.834Z,87.00
2018-09-12T04:43:34.436Z,87.19
2018-09-12T04:44:35.920Z,87.08
2018-09-12T04:45:36.412Z,87.05
2018-09-12T04:46:36.944Z,87.05
2018-09-12T04:47:37.261Z,87.03
2018-09-12T04:48:37.832Z,87.00
2018-09-12T04:49:37.187Z,87.68
2018-09-12T04:50:38.804Z,87.58
2018-09-12T04:51:39.259Z,88.22
2018-09-12T04:52:39.703Z,87.83
2018-09-12T04:52:48.200Z,87.65
2018-09-12T04:53:49.092Z,87.62
2018-09-12T04:54:48.639Z,87.79
2018-09-12T04:55:50.213Z,87.88
2018-09-12T04:56:50.993Z,88.06
2018-09-12T04:57:51.458Z,88.09
2018-09-12T04:58:52.079Z,88.33
2018-09-12T04:59:52.887Z,88.27
2018-09-12T05:00:52.377Z,88.10
2018-09-12T05:01:54.031Z,88.40
2018-09-12T05:02:54.744Z,88.48
2018-09-12T05:03:54.794Z,88.33
2018-09-12T05:04:55.652Z,88.56
2018-09-12T05:05:56.098Z,88.58
2018-09-12T05:06:56.699Z,88.41
2018-09-12T05:07:57.158Z,88.69
2018-09-12T05:08:57.703Z,88.55
2018-09-12T05:09:58.196Z,88.36
2018-09-12T05:10:58.866Z,88.27
2018-09-12T05:11:59.517Z,88.15
2018-09-12T05:12:59.973Z,88.10
2018-09-12T05:14:01.913Z,88.15
2018-09-12T05:15:01.709Z,88.53
2018-09-12T05:16:02.466Z,88.34
2018-09-12T05:17:02.350Z,88.72
2018-09-12T05:18:04.306Z,88.74
2018-09-12T05:19:05.123Z,88.43
2018-09-12T05:20:05.836Z,88.63
2018-09-12T05:21:06.349Z,88.29
2018-09-12T05:22:06.953Z,88.04
2018-09-12T05:23:07.766Z,88.27
2018-09-12T05:24:08.552Z,88.87
2018-09-12T05:25:09.182Z,88.69
2018-09-12T05:26:09.811Z,89.10
2018-09-12T05:27:10.285Z,88.83
2018-09-12T05:28:10.801Z,88.64
2018-09-12T05:29:11.368Z,88.70
2018-09-12T05:30:11.851Z,88.31
2018-09-12T05:31:12.441Z,88.33
2018-09-12T05:32:12.975Z,88.22
2018-09-12T05:33:13.705Z,88.41
2018-09-12T05:34:14.288Z,88.46
2018-09-12T05:35:14.793Z,88.47
2018-09-12T05:36:15.340Z,88.67
2018-09-12T05:37:14.845Z,88.37
2018-09-12T05:38:16.367Z,88.12
2018-09-12T05:39:16.486Z,88.11
2018-09-12T05:39:24.886Z,88.00
2018-09-12T05:40:26.405Z,88.00
2018-09-12T05:41:27.220Z,88.08
2018-09-12T05:42:28.079Z,87.99
2018-09-12T05:43:28.604Z,88.01
2018-09-12T05:44:29.301Z,88.45
2018-09-12T05:45:29.934Z,88.62
2018-09-12T05:46:30.598Z,88.58
2018-09-12T05:47:31.450Z,88.58
2018-09-12T05:48:31.932Z,88.20
2018-09-12T05:49:32.030Z,88.28
2018-09-12T05:50:32.560Z,88.57
2018-09-12T05:51:33.037Z,88.45
2018-09-12T05:52:33.539Z,88.20
2018-09-12T05:53:37.265Z,87.98
2018-09-12T05:54:34.809Z,87.94
2018-09-12T05:55:35.420Z,88.07
2018-09-12T05:56:36.036Z,88.10
2018-09-12T05:57:36.564Z,88.02
2018-09-12T05:58:37.120Z,87.90
2018-09-12T05:59:37.535Z,87.79
2018-09-12T06:00:38.153Z,87.73
2018-09-12T06:01:39.058Z,87.65
2018-09-12T06:02:39.585Z,87.39
2018-09-12T06:03:40.167Z,87.73
2018-09-12T06:04:40.671Z,87.57
2018-09-12T06:05:41.422Z,87.17
2018-09-12T06:06:41.399Z,87.54
2018-09-12T06:07:42.300Z,87.63
2018-09-12T06:08:44.260Z,87.46
2018-09-12T06:09:45.063Z,87.39
2018-09-12T06:10:45.779Z,87.34
2018-09-12T06:11:46.271Z,87.17
2018-09-12T06:12:46.852Z,87.09
2018-09-12T06:13:47.773Z,86.84
2018-09-12T06:14:47.520Z,86.88
2018-09-12T06:15:48.006Z,86.94
2018-09-12T06:16:49.576Z,86.74
2018-09-12T06:17:50.293Z,86.99
2018-09-12T06:18:50.837Z,86.95
2018-09-12T06:19:51.297Z,87.10
2018-09-12T06:20:52.055Z,86.72
2018-09-12T06:21:52.535Z,86.70
2018-09-12T06:22:52.847Z,86.36
2018-09-12T06:23:52.311Z,86.23
2018-09-12T06:24:53.833Z,86.37
2018-09-12T06:25:53.451Z,86.66
2018-09-12T06:26:55.080Z,86.50
2018-09-12T06:27:58.531Z,86.22
2018-09-12T06:28:55.639Z,86.23
2018-09-12T06:29:06.602Z,85.91
2018-09-12T06:30:06.589Z,85.92
2018-09-12T06:31:06.125Z,85.91
2018-09-12T06:32:07.774Z,85.91
2018-09-12T06:33:08.477Z,85.74
2018-09-12T06:34:09.036Z,86.01
2018-09-12T06:35:09.588Z,86.15
2018-09-12T06:36:10.119Z,85.53
2018-09-12T06:37:10.678Z,84.19
2018-09-12T06:38:11.246Z,82.28
2018-09-12T06:39:12.028Z,80.17
2018-09-12T06:40:11.626Z,78.05
2018-09-12T06:41:13.122Z,75.76
2018-09-12T06:42:14.038Z,74.16
2018-09-12T06:43:14.585Z,72.24
2018-09-12T06:44:15.177Z,70.98
2018-09-12T06:45:15.662Z,70.69
2018-09-12T06:46:16.345Z,69.57
2018-09-12T06:47:16.968Z,68.18
2018-09-12T06:48:16.934Z,66.96
2018-09-12T06:49:17.423Z,66.26
2018-09-12T06:50:17.991Z,65.45
2018-09-12T06:51:18.394Z,64.56
2018-09-12T06:52:19.167Z,64.04
2018-09-12T06:53:19.254Z,64.41
2018-09-12T06:54:19.853Z,64.20
2018-09-12T06:55:20.336Z,63.65
2018-09-12T06:56:21.005Z,62.08
2018-09-12T06:57:21.854Z,60.60
2018-09-12T06:58:22.684Z,59.11
2018-09-12T06:59:23.225Z,58.44
2018-09-12T07:00:24.173Z,57.06
2018-09-12T07:01:23.986Z,56.08
2018-09-12T07:02:25.875Z,55.74
2018-09-12T07:03:26.640Z,55.29
2018-09-12T07:04:27.224Z,53.62
2018-09-12T07:05:28.111Z,52.99
2018-09-12T07:06:28.870Z,51.93
2018-09-12T07:07:29.661Z,51.47
2018-09-12T07:08:29.279Z,50.60
2018-09-12T07:09:31.117Z,49.67
2018-09-12T07:10:31.741Z,49.67
2018-09-12T07:11:32.422Z,48.50
2018-09-12T07:12:33.146Z,47.63
2018-09-12T07:13:33.722Z,46.94
2018-09-12T07:14:34.310Z,46.97
2018-09-12T07:15:35.056Z,46.95
2018-09-12T07:15:43.401Z,47.00
2018-09-12T07:16:44.861Z,47.05
2018-09-12T07:17:44.507Z,47.77
2018-09-12T07:18:46.315Z,46.76
2018-09-12T07:19:47.054Z,46.56
2018-09-12T07:20:47.162Z,46.58
2018-09-12T07:21:47.831Z,46.43
2018-09-12T07:22:48.494Z,47.10
2018-09-12T07:23:49.215Z,47.69
2018-09-12T07:24:49.806Z,48.12
2018-09-12T07:25:49.154Z,46.95
2018-09-12T07:26:50.748Z,46.87
2018-09-12T07:27:51.532Z,46.62
2018-09-12T07:28:51.897Z,46.42
2018-09-12T07:29:52.805Z,46.12
2018-09-12T07:30:53.256Z,45.75
2018-09-12T07:31:53.840Z,45.69
2018-09-12T07:32:54.383Z,44.58
2018-09-12T07:33:55.024Z,44.45
2018-09-12T07:34:55.594Z,43.84
2018-09-12T07:35:56.203Z,43.88
2018-09-12T07:36:56.924Z,43.57
2018-09-12T07:37:57.721Z,43.41
2018-09-12T07:38:58.196Z,43.89
2018-09-12T07:39:58.803Z,43.60
2018-09-12T07:40:59.372Z,43.83
2018-09-12T07:41:59.825Z,43.93
2018-09-12T07:43:00.756Z,43.26
2018-09-12T07:44:01.139Z,43.63
2018-09-12T07:45:01.523Z,43.88
2018-09-12T07:46:02.031Z,44.73
2018-09-12T07:47:02.471Z,45.21
2018-09-12T07:48:02.937Z,44.14
2018-09-12T07:49:03.354Z,44.19
2018-09-12T07:50:02.837Z,43.82
2018-09-12T07:51:04.261Z,43.08
2018-09-12T07:52:05.047Z,42.77
2018-09-12T07:53:05.596Z,42.45
2018-09-12T07:54:06.021Z,42.51
2018-09-12T07:55:06.582Z,42.66
2018-09-12T07:56:06.150Z,42.08
2018-09-12T07:57:06.555Z,42.23
2018-09-12T07:58:08.138Z,42.38
2018-09-12T07:59:08.697Z,42.24
2018-09-12T08:00:09.247Z,42.05
2018-09-12T08:01:08.625Z,41.91
2018-09-12T08:02:10.125Z,41.86
2018-09-12T08:03:10.628Z,41.77
2018-09-12T08:04:11.193Z,41.86
2018-09-12T08:04:19.780Z,41.98
2018-09-12T08:05:20.085Z,42.02
2018-09-12T08:06:21.889Z,41.99
2018-09-12T08:07:22.454Z,42.31
2018-09-12T08:08:21.872Z,42.17
2018-09-12T08:09:23.355Z,42.05
2018-09-12T08:10:23.744Z,41.89
2018-09-12T08:11:24.305Z,41.91
2018-09-12T08:12:24.766Z,42.37
2018-09-12T08:13:25.212Z,42.68
2018-09-12T08:14:25.657Z,42.85
2018-09-12T08:15:26.175Z,42.56
2018-09-12T08:16:26.569Z,42.90
2018-09-12T08:17:26.924Z,42.73
2018-09-12T08:18:27.339Z,43.33
2018-09-12T08:19:27.824Z,42.79
2018-09-12T08:20:28.361Z,42.96
2018-09-12T08:21:28.794Z,43.26
2018-09-12T08:22:29.155Z,43.63
2018-09-12T08:23:28.609Z,43.40
2018-09-12T08:24:30.138Z,42.57
2018-09-12T08:25:30.526Z,42.30
2018-09-12T08:26:30.995Z,42.64
2018-09-12T08:27:31.347Z,43.06
2018-09-12T08:28:31.764Z,43.04
2018-09-12T08:29:32.264Z,42.58
2018-09-12T08:30:32.942Z,42.06
2018-09-12T08:31:33.352Z,41.94
2018-09-12T08:32:33.674Z,41.78
2018-09-12T08:33:34.029Z,42.25
2018-09-12T08:34:34.452Z,42.11
2018-09-12T08:35:34.776Z,41.39
2018-09-12T08:36:35.386Z,41.71
2018-09-12T08:37:34.498Z,41.27
2018-09-12T08:38:35.988Z,40.71
2018-09-12T08:39:36.698Z,40.70
2018-09-12T08:40:37.046Z,40.67
2018-09-12T08:41:37.471Z,40.99
2018-09-12T08:42:38.126Z,40.23
2018-09-12T08:43:37.121Z,39.89
2018-09-12T08:44:38.542Z,40.09
2018-09-12T08:45:38.921Z,40.28
2018-09-12T08:46:39.534Z,40.46
2018-09-12T08:47:39.733Z,40.81
2018-09-12T08:48:39.257Z,40.75
2018-09-12T08:49:40.653Z,40.75
2018-09-12T08:50:40.982Z,40.74
2018-09-12T08:51:41.355Z,40.75
2018-09-12T08:52:40.951Z,40.69
2018-09-12T08:53:42.266Z,41.07
2018-09-12T08:53:50.674Z,40.83
2018-09-12T08:54:51.777Z,40.86
2018-09-12T08:55:52.299Z,41.56
2018-09-12T08:56:52.748Z,41.50
2018-09-12T08:57:51.745Z,41.79
2018-09-12T08:58:53.180Z,41.61
2018-09-12T08:59:53.583Z,41.71
2018-09-12T09:00:54.109Z,42.00
2018-09-12T09:01:54.534Z,42.62
2018-09-12T09:02:54.943Z,42.72
2018-09-12T09:03:55.413Z,42.54
2018-09-12T09:04:54.849Z,42.58
2018-09-12T09:05:56.257Z,42.73
2018-09-12T09:06:56.831Z,42.67
2018-09-12T09:07:57.406Z,42.82
2018-09-12T09:08:57.935Z,42.86
2018-09-12T09:09:58.546Z,42.80
2018-09-12T09:10:58.937Z,42.66
2018-09-12T09:11:59.743Z,42.56
2018-09-12T09:13:00.216Z,43.06
2018-09-12T09:14:00.872Z,43.35
2018-09-12T09:15:01.468Z,43.37
2018-09-12T09:16:01.881Z,43.51
2018-09-12T09:17:02.376Z,43.16
2018-09-12T09:18:02.800Z,43.10
2018-09-12T09:19:03.256Z,43.13
2018-09-12T09:20:03.633Z,42.83
2018-09-12T09:21:04.028Z,42.83
2018-09-12T09:22:04.484Z,43.01
2018-09-12T09:23:05.318Z,42.91
2018-09-12T09:24:05.644Z,43.19
2018-09-12T09:25:06.248Z,43.08
2018-09-12T09:26:06.595Z,43.05
2018-09-12T09:27:07.201Z,43.50
2018-09-12T09:28:07.654Z,43.21
2018-09-12T09:29:08.085Z,43.13
2018-09-12T09:30:08.722Z,43.24
2018-09-12T09:31:09.166Z,43.53
2018-09-12T09:32:09.904Z,42.71
2018-09-12T09:33:10.677Z,42.90
2018-09-12T09:34:11.633Z,43.03
2018-09-12T09:35:12.559Z,43.54
2018-09-12T09:36:11.949Z,43.55
2018-09-12T09:37:13.383Z,43.83
2018-09-12T09:38:13.836Z,44.44
2018-09-12T09:39:13.320Z,43.91
2018-09-12T09:40:15.287Z,42.73
2018-09-12T09:41:15.671Z,43.43
2018-09-12T09:41:25.738Z,43.27
2018-09-12T09:42:27.065Z,43.34
2018-09-12T09:43:27.448Z,43.31
2018-09-12T09:44:27.839Z,44.81
2018-09-12T09:45:28.438Z,44.40
2018-09-12T09:46:27.848Z,43.50
2018-09-12T09:47:29.240Z,43.69
2018-09-12T09:48:29.759Z,43.80
2018-09-12T09:49:29.058Z,44.39
2018-09-12T09:50:30.601Z,44.73
2018-09-12T09:51:30.994Z,45.19
2018-09-12T09:52:30.380Z,45.10
2018-09-12T09:53:31.784Z,44.95
2018-09-12T09:54:32.252Z,45.49
2018-09-12T09:55:31.599Z,45.46
2018-09-12T09:56:32.967Z,45.45
2018-09-12T09:57:33.136Z,45.45
2018-09-12T09:58:33.452Z,45.08
2018-09-12T09:59:33.742Z,45.35
2018-09-12T10:00:34.100Z,45.61
2018-09-12T10:01:34.763Z,45.83
2018-09-12T10:02:35.185Z,45.54
2018-09-12T10:03:36.022Z,45.67
2018-09-12T10:04:36.547Z,45.79
2018-09-12T10:05:36.962Z,46.57
2018-09-12T10:06:37.830Z,46.24
2018-09-12T10:07:38.198Z,46.53
2018-09-12T10:08:38.581Z,46.25
2018-09-12T10:09:39.182Z,45.69
2018-09-12T10:10:39.556Z,45.65
2018-09-12T10:11:39.973Z,45.16
2018-09-12T10:12:40.506Z,45.61
2018-09-12T10:13:40.848Z,46.13
2018-09-12T10:14:41.527Z,46.17
2018-09-12T10:15:41.922Z,46.18
2018-09-12T10:16:41.963Z,46.07
2018-09-12T10:17:42.304Z,46.39
2018-09-12T10:18:42.691Z,45.88
2018-09-12T10:19:43.163Z,46.34
2018-09-12T10:20:43.649Z,45.93
2018-09-12T10:21:43.973Z,45.87
2018-09-12T10:22:44.373Z,46.06
2018-09-12T10:23:44.778Z,46.38
2018-09-12T10:24:45.146Z,46.27
2018-09-12T10:25:45.520Z,46.28
2018-09-12T10:26:46.074Z,46.38
2018-09-12T10:27:46.204Z,46.61
2018-09-12T10:28:47.052Z,46.36
2018-09-12T10:28:55.105Z,46.87
2018-09-12T10:29:56.459Z,46.75
2018-09-12T10:30:56.873Z,46.70
2018-09-12T10:31:57.402Z,46.30
2018-09-12T10:32:57.797Z,46.00
2018-09-12T10:33:58.181Z,46.68
2018-09-12T10:34:58.468Z,46.95
2018-09-12T10:35:58.884Z,46.75
2018-09-12T10:36:59.334Z,46.83
2018-09-12T10:37:59.693Z,47.32
2018-09-12T10:39:00.431Z,47.48
2018-09-12T10:40:00.870Z,47.50
2018-09-12T10:41:01.444Z,46.95
2018-09-12T10:42:00.995Z,47.04
2018-09-12T10:43:02.502Z,46.63
2018-09-12T10:44:02.874Z,46.48
2018-09-12T10:45:02.936Z,46.56
2018-09-12T10:46:03.379Z,46.64
2018-09-12T10:47:03.746Z,46.41
2018-09-12T10:48:04.178Z,46.24
2018-09-12T10:49:04.635Z,46.33
2018-09-12T10:50:04.930Z,46.57
2018-09-12T10:51:05.386Z,46.84
2018-09-12T10:52:05.795Z,46.36
2018-09-12T10:53:06.314Z,46.11
2018-09-12T10:54:06.912Z,46.11
2018-09-12T10:55:07.368Z,45.58
2018-09-12T10:56:07.694Z,45.54
2018-09-12T10:57:08.100Z,45.45
2018-09-12T10:58:08.581Z,45.37
2018-09-12T10:59:08.989Z,45.75
2018-09-12T11:00:08.788Z,45.59
2018-09-12T11:01:10.267Z,45.60
2018-09-12T11:02:10.708Z,45.62
2018-09-12T11:03:11.146Z,45.92
2018-09-12T11:04:11.590Z,46.32
2018-09-12T11:05:11.264Z,45.84
2018-09-12T11:06:12.617Z,46.13
2018-09-12T11:07:12.304Z,46.03
2018-09-12T11:08:13.752Z,46.13
2018-09-12T11:09:14.216Z,45.82
2018-09-12T11:10:14.677Z,46.39
2018-09-12T11:11:15.088Z,46.14
2018-09-12T11:12:15.465Z,45.91
2018-09-12T11:13:15.894Z,45.85
2018-09-12T11:14:16.387Z,45.63
2018-09-12T11:15:16.771Z,45.64
2018-09-12T11:16:16.595Z,46.02
2018-09-12T11:17:18.195Z,46.11
2018-09-12T11:17:26.234Z,46.17
2018-09-12T11:18:27.864Z,46.06
2018-09-12T11:19:28.253Z,46.50
2018-09-12T11:20:28.746Z,46.34
2018-09-12T11:21:29.222Z,46.60
2018-09-12T11:22:29.741Z,45.68
2018-09-12T11:23:31.139Z,45.49
2018-09-12T11:24:30.634Z,45.30
2018-09-12T11:25:31.203Z,45.39
2018-09-12T11:26:31.610Z,45.15
2018-09-12T11:27:31.988Z,45.41
2018-09-12T11:28:32.417Z,45.91
2018-09-12T11:29:33.120Z,46.16
2018-09-12T11:30:33.511Z,46.40
2018-09-12T11:31:33.995Z,46.43
2018-09-12T11:32:34.409Z,45.88
2018-09-12T11:33:34.847Z,46.04
2018-09-12T11:34:35.265Z,45.63
2018-09-12T11:35:35.832Z,45.35
2018-09-12T11:36:34.855Z,45.81
2018-09-12T11:37:36.525Z,45.60
2018-09-12T11:38:37.070Z,45.80
2018-09-12T11:39:37.803Z,46.24
2018-09-12T11:40:38.461Z,45.91
2018-09-12T11:41:38.945Z,45.54
2018-09-12T11:42:39.031Z,46.23
2018-09-12T11:43:39.853Z,46.59
2018-09-12T11:44:40.285Z,45.76
2018-09-12T11:45:40.692Z,45.95
2018-09-12T11:46:41.107Z,45.50
2018-09-12T11:47:41.438Z,45.17
2018-09-12T11:48:41.486Z,45.59
2018-09-12T11:49:41.964Z,45.64
2018-09-12T11:50:42.422Z,45.54
2018-09-12T11:51:42.891Z,45.93
2018-09-12T11:52:43.332Z,45.78
2018-09-12T11:53:43.740Z,46.41
2018-09-12T11:54:44.167Z,46.30
2018-09-12T11:55:44.652Z,45.64
2018-09-12T11:56:45.312Z,45.97
2018-09-12T11:57:45.855Z,46.03
2018-09-12T11:58:45.338Z,46.00
2018-09-12T11:59:46.847Z,46.26
2018-09-12T12:00:47.530Z,45.45
2018-09-12T12:01:47.544Z,45.24
2018-09-12T12:02:47.882Z,44.83
2018-09-12T12:02:56.241Z,44.71
2018-09-12T12:03:57.859Z,44.66
2018-09-12T12:04:58.625Z,45.16
2018-09-12T12:05:59.200Z,44.52
2018-09-12T12:06:58.609Z,44.46
2018-09-12T12:08:00.449Z,45.24
2018-09-12T12:09:00.856Z,44.41
2018-09-12T12:10:01.730Z,44.55
2018-09-12T12:11:02.390Z,44.98
2018-09-12T12:12:03.085Z,44.78
2018-09-12T12:13:03.962Z,44.44
2018-09-12T12:14:04.523Z,44.78
2018-09-12T12:15:05.182Z,45.34
2018-09-12T12:16:05.706Z,45.37
2018-09-12T12:17:06.143Z,45.40
2018-09-12T12:18:06.767Z,45.38
2018-09-12T12:19:06.248Z,45.08
2018-09-12T12:20:08.203Z,44.70
2018-09-12T12:21:08.657Z,43.94
2018-09-12T12:22:09.004Z,44.36
2018-09-12T12:23:09.569Z,44.49
2018-09-12T12:24:08.905Z,44.48
2018-09-12T12:25:10.342Z,43.77
2018-09-12T12:26:10.876Z,43.92
2018-09-12T12:27:11.224Z,44.27
2018-09-12T12:28:11.608Z,43.87
2018-09-12T12:29:12.165Z,44.07
2018-09-12T12:30:12.769Z,44.23
2018-09-12T12:31:13.740Z,44.23
2018-09-12T12:32:14.187Z,44.08
2018-09-12T12:33:14.708Z,44.02
2018-09-12T12:34:15.531Z,43.60
2018-09-12T12:35:16.070Z,43.75
2018-09-12T12:36:15.818Z,43.59
2018-09-12T12:37:17.231Z,43.20
2018-09-12T12:38:18.171Z,43.49
2018-09-12T12:39:18.778Z,43.26
2018-09-12T12:40:19.193Z,42.92
2018-09-12T12:41:19.414Z,43.06
2018-09-12T12:42:18.871Z,43.28
2018-09-12T12:43:20.513Z,43.04
2018-09-12T12:44:21.132Z,43.08
2018-09-12T12:45:21.768Z,42.89
2018-09-12T12:46:22.235Z,43.01